sensor_id;sensor_type;location;lat;lon;timestamp;P1;durP1;ratioP1;P2;durP2;ratioP2
35689;SDS011;26977;44.830;-0.674;2022-10-17T00:01:01;11.50;;;4.13;;
35689;SDS011;26977;44.830;-0.674;2022-10-17T00:03:27;9.70;;;3.85;;
35689;SDS011;26977;44.830;-0.674;2022-10-17T00:05:53;12.13;;;4.30;;
35689;SDS011;26977;44.830;-0.674;2022-10-17T00:08:18;11.20;;;3.97;;
35689;SDS011;26977;44.830;-0.674;2022-10-17T00:10:44;10.20;;;4.03;;
35689;SDS011;26977;44.830;-0.674;2022-10-17T00:13:19;13.85;;;3.88;;
35689;SDS011;26977;44.830;-0.674;2022-10-17T00:15:45;9.25;;;4.15;;
35689;SDS011;26977;44.830;-0.674;2022-10-17T00:18:10;11.00;;;3.85;;
35689;SDS011;26977;44.830;-0.674;2022-10-17T00:20:36;10.02;;;3.65;;
35689;SDS011;26977;44.830;-0.674;2022-10-17T00:23:02;11.80;;;4.25;;
35689;SDS011;26977;44.830;-0.674;2022-10-17T00:25:27;17.38;;;4.10;;
35689;SDS011;26977;44.830;-0.674;2022-10-17T00:27:54;10.30;;;3.50;;
35689;SDS011;26977;44.830;-0.674;2022-10-17T00:30:20;10.38;;;3.65;;
35689;SDS011;26977;44.830;-0.674;2022-10-17T00:32:46;12.80;;;4.03;;
35689;SDS011;26977;44.830;-0.674;2022-10-17T00:35:11;11.10;;;3.80;;
35689;SDS011;26977;44.830;-0.674;2022-10-17T00:37:37;10.07;;;4.20;;
35689;SDS011;26977;44.830;-0.674;2022-10-17T00:40:03;16.38;;;4.78;;
35689;SDS011;26977;44.830;-0.674;2022-10-17T00:42:30;13.98;;;3.80;;
35689;SDS011;26977;44.830;-0.674;2022-10-17T00:44:58;14.23;;;4.10;;
35689;SDS011;26977;44.830;-0.674;2022-10-17T00:47:27;15.82;;;4.43;;
35689;SDS011;26977;44.830;-0.674;2022-10-17T00:49:53;12.70;;;3.70;;
35689;SDS011;26977;44.830;-0.674;2022-10-17T00:52:22;9.93;;;4.05;;
35689;SDS011;26977;44.830;-0.674;2022-10-17T00:54:53;7.18;;;4.28;;
35689;SDS011;26977;44.830;-0.674;2022-10-17T00:57:46;9.15;;;4.13;;
35689;SDS011;26977;44.830;-0.674;2022-10-17T01:00:12;9.60;;;4.63;;
35689;SDS011;26977;44.830;-0.674;2022-10-17T01:02:39;9.65;;;4.30;;
35689;SDS011;26977;44.830;-0.674;2022-10-17T01:05:05;9.95;;;4.43;;
35689;SDS011;26977;44.830;-0.674;2022-10-17T01:07:32;12.52;;;4.50;;
35689;SDS011;26977;44.830;-0.674;2022-10-17T01:09:57;9.38;;;4.30;;
35689;SDS011;26977;44.830;-0.674;2022-10-17T01:12:24;15.75;;;4.60;;
35689;SDS011;26977;44.830;-0.674;2022-10-17T01:23:52;16.45;;;5.20;;
35689;SDS011;26977;44.830;-0.674;2022-10-17T01:32:37;13.70;;;5.00;;
35689;SDS011;26977;44.830;-0.674;2022-10-17T01:37:53;13.20;;;4.88;;
35689;SDS011;26977;44.830;-0.674;2022-10-17T01:40:32;13.05;;;5.53;;
35689;SDS011;26977;44.830;-0.674;2022-10-17T01:45:51;14.55;;;5.70;;
35689;SDS011;26977;44.830;-0.674;2022-10-17T01:48:38;13.40;;;5.78;;
35689;SDS011;26977;44.830;-0.674;2022-10-17T01:51:09;13.05;;;5.75;;
35689;SDS011;26977;44.830;-0.674;2022-10-17T01:53:57;15.80;;;5.93;;
35689;SDS011;26977;44.830;-0.674;2022-10-17T01:56:27;18.00;;;5.30;;
35689;SDS011;26977;44.830;-0.674;2022-10-17T01:58:57;12.45;;;5.25;;
35689;SDS011;26977;44.830;-0.674;2022-10-17T02:01:27;10.95;;;4.95;;
35689;SDS011;26977;44.830;-0.674;2022-10-17T02:03:55;15.05;;;5.45;;
35689;SDS011;26977;44.830;-0.674;2022-10-17T02:06:22;15.35;;;5.95;;
35689;SDS011;26977;44.830;-0.674;2022-10-17T02:08:49;10.32;;;4.90;;
35689;SDS011;26977;44.830;-0.674;2022-10-17T02:11:16;14.80;;;5.10;;
35689;SDS011;26977;44.830;-0.674;2022-10-17T02:22:44;15.27;;;5.80;;
35689;SDS011;26977;44.830;-0.674;2022-10-17T02:28:20;14.38;;;6.00;;
35689;SDS011;26977;44.830;-0.674;2022-10-17T02:30:59;12.40;;;6.18;;
35689;SDS011;26977;44.830;-0.674;2022-10-17T02:33:29;13.50;;;5.80;;
35689;SDS011;26977;44.830;-0.674;2022-10-17T02:36:05;9.30;;;6.15;;
35689;SDS011;26977;44.830;-0.674;2022-10-17T02:38:36;16.77;;;5.75;;
35689;SDS011;26977;44.830;-0.674;2022-10-17T02:41:03;15.48;;;6.35;;
35689;SDS011;26977;44.830;-0.674;2022-10-17T02:43:31;12.73;;;6.07;;
35689;SDS011;26977;44.830;-0.674;2022-10-17T02:45:58;13.75;;;5.47;;
35689;SDS011;26977;44.830;-0.674;2022-10-17T02:51:01;14.30;;;6.47;;
35689;SDS011;26977;44.830;-0.674;2022-10-17T02:56:35;18.35;;;6.50;;
35689;SDS011;26977;44.830;-0.674;2022-10-17T02:59:08;15.13;;;6.45;;
35689;SDS011;26977;44.830;-0.674;2022-10-17T03:01:38;13.57;;;6.60;;
35689;SDS011;26977;44.830;-0.674;2022-10-17T03:04:13;18.08;;;6.85;;
35689;SDS011;26977;44.830;-0.674;2022-10-17T03:06:39;20.98;;;7.38;;
35689;SDS011;26977;44.830;-0.674;2022-10-17T03:09:06;17.00;;;7.53;;
35689;SDS011;26977;44.830;-0.674;2022-10-17T03:11:32;16.50;;;7.43;;
35689;SDS011;26977;44.830;-0.674;2022-10-17T03:13:58;14.05;;;7.57;;
35689;SDS011;26977;44.830;-0.674;2022-10-17T03:16:24;15.07;;;7.90;;
35689;SDS011;26977;44.830;-0.674;2022-10-17T03:18:49;13.32;;;7.15;;
35689;SDS011;26977;44.830;-0.674;2022-10-17T03:21:15;14.15;;;7.35;;
35689;SDS011;26977;44.830;-0.674;2022-10-17T03:23:41;14.15;;;8.60;;
35689;SDS011;26977;44.830;-0.674;2022-10-17T03:26:07;12.40;;;8.18;;
35689;SDS011;26977;44.830;-0.674;2022-10-17T03:28:32;20.48;;;9.00;;
35689;SDS011;26977;44.830;-0.674;2022-10-17T03:31:05;19.73;;;9.13;;
35689;SDS011;26977;44.830;-0.674;2022-10-17T03:33:35;23.00;;;10.27;;
35689;SDS011;26977;44.830;-0.674;2022-10-17T03:36:08;15.13;;;9.40;;
35689;SDS011;26977;44.830;-0.674;2022-10-17T03:38:39;17.15;;;9.25;;
35689;SDS011;26977;44.830;-0.674;2022-10-17T03:41:05;19.98;;;10.45;;
35689;SDS011;26977;44.830;-0.674;2022-10-17T03:43:32;15.30;;;9.07;;
35689;SDS011;26977;44.830;-0.674;2022-10-17T03:45:58;23.42;;;10.48;;
35689;SDS011;26977;44.830;-0.674;2022-10-17T03:48:24;15.15;;;9.15;;
35689;SDS011;26977;44.830;-0.674;2022-10-17T03:50:51;22.25;;;10.80;;
35689;SDS011;26977;44.830;-0.674;2022-10-17T03:53:16;16.63;;;10.68;;
35689;SDS011;26977;44.830;-0.674;2022-10-17T03:55:42;19.27;;;11.52;;
35689;SDS011;26977;44.830;-0.674;2022-10-17T03:58:08;22.27;;;11.57;;
35689;SDS011;26977;44.830;-0.674;2022-10-17T04:00:37;20.90;;;11.35;;
35689;SDS011;26977;44.830;-0.674;2022-10-17T04:03:02;21.48;;;11.57;;
35689;SDS011;26977;44.830;-0.674;2022-10-17T04:05:28;20.58;;;12.43;;
35689;SDS011;26977;44.830;-0.674;2022-10-17T04:07:53;21.92;;;12.57;;
35689;SDS011;26977;44.830;-0.674;2022-10-17T04:10:19;21.48;;;11.85;;
35689;SDS011;26977;44.830;-0.674;2022-10-17T04:12:45;20.27;;;12.90;;
35689;SDS011;26977;44.830;-0.674;2022-10-17T04:15:10;28.27;;;12.35;;
35689;SDS011;26977;44.830;-0.674;2022-10-17T04:17:36;23.45;;;12.70;;
35689;SDS011;26977;44.830;-0.674;2022-10-17T04:20:02;25.05;;;12.77;;
35689;SDS011;26977;44.830;-0.674;2022-10-17T04:22:28;27.20;;;13.35;;
35689;SDS011;26977;44.830;-0.674;2022-10-17T04:24:53;24.40;;;13.10;;
35689;SDS011;26977;44.830;-0.674;2022-10-17T04:27:19;27.80;;;13.70;;
35689;SDS011;26977;44.830;-0.674;2022-10-17T04:29:45;30.27;;;14.38;;
35689;SDS011;26977;44.830;-0.674;2022-10-17T04:32:10;29.75;;;14.77;;
35689;SDS011;26977;44.830;-0.674;2022-10-17T04:34:36;35.67;;;15.85;;
35689;SDS011;26977;44.830;-0.674;2022-10-17T04:37:02;28.92;;;15.57;;
35689;SDS011;26977;44.830;-0.674;2022-10-17T04:39:28;35.70;;;15.57;;
35689;SDS011;26977;44.830;-0.674;2022-10-17T04:41:53;41.60;;;20.60;;
35689;SDS011;26977;44.830;-0.674;2022-10-17T04:44:20;35.20;;;17.65;;
35689;SDS011;26977;44.830;-0.674;2022-10-17T04:46:46;29.55;;;16.88;;
35689;SDS011;26977;44.830;-0.674;2022-10-17T04:49:12;35.30;;;17.30;;
35689;SDS011;26977;44.830;-0.674;2022-10-17T04:51:37;41.88;;;17.13;;
35689;SDS011;26977;44.830;-0.674;2022-10-17T04:54:03;29.77;;;17.50;;
35689;SDS011;26977;44.830;-0.674;2022-10-17T04:56:29;36.80;;;17.83;;
35689;SDS011;26977;44.830;-0.674;2022-10-17T04:58:55;37.88;;;18.38;;
35689;SDS011;26977;44.830;-0.674;2022-10-17T05:01:23;32.40;;;17.92;;
35689;SDS011;26977;44.830;-0.674;2022-10-17T05:03:49;36.60;;;17.25;;
35689;SDS011;26977;44.830;-0.674;2022-10-17T05:06:17;37.15;;;17.70;;
35689;SDS011;26977;44.830;-0.674;2022-10-17T05:08:45;36.53;;;17.67;;
35689;SDS011;26977;44.830;-0.674;2022-10-17T05:11:18;33.42;;;17.48;;
35689;SDS011;26977;44.830;-0.674;2022-10-17T05:13:52;37.92;;;19.23;;
35689;SDS011;26977;44.830;-0.674;2022-10-17T05:16:23;32.83;;;18.55;;
35689;SDS011;26977;44.830;-0.674;2022-10-17T05:18:49;35.78;;;17.92;;
35689;SDS011;26977;44.830;-0.674;2022-10-17T05:21:16;29.63;;;16.83;;
35689;SDS011;26977;44.830;-0.674;2022-10-17T05:23:42;30.10;;;16.95;;
35689;SDS011;26977;44.830;-0.674;2022-10-17T05:26:07;43.30;;;18.05;;
35689;SDS011;26977;44.830;-0.674;2022-10-17T05:28:33;33.47;;;16.90;;
35689;SDS011;26977;44.830;-0.674;2022-10-17T05:31:05;35.40;;;17.63;;
35689;SDS011;26977;44.830;-0.674;2022-10-17T05:33:32;28.33;;;16.67;;
35689;SDS011;26977;44.830;-0.674;2022-10-17T05:35:58;33.33;;;17.85;;
35689;SDS011;26977;44.830;-0.674;2022-10-17T05:38:24;27.45;;;15.57;;
35689;SDS011;26977;44.830;-0.674;2022-10-17T05:40:50;32.15;;;14.65;;
35689;SDS011;26977;44.830;-0.674;2022-10-17T05:43:16;32.35;;;14.93;;
35689;SDS011;26977;44.830;-0.674;2022-10-17T05:45:42;31.15;;;14.10;;
35689;SDS011;26977;44.830;-0.674;2022-10-17T05:48:07;26.17;;;14.40;;
35689;SDS011;26977;44.830;-0.674;2022-10-17T05:50:33;25.83;;;14.63;;
35689;SDS011;26977;44.830;-0.674;2022-10-17T05:53:00;29.45;;;15.32;;
35689;SDS011;26977;44.830;-0.674;2022-10-17T05:55:25;32.58;;;16.02;;
35689;SDS011;26977;44.830;-0.674;2022-10-17T05:57:51;29.30;;;15.02;;
35689;SDS011;26977;44.830;-0.674;2022-10-17T06:00:18;27.23;;;15.50;;
35689;SDS011;26977;44.830;-0.674;2022-10-17T06:02:45;34.53;;;15.95;;
35689;SDS011;26977;44.830;-0.674;2022-10-17T06:05:11;26.10;;;14.77;;
35689;SDS011;26977;44.830;-0.674;2022-10-17T06:07:37;27.80;;;15.35;;
35689;SDS011;26977;44.830;-0.674;2022-10-17T06:10:03;31.75;;;15.57;;
35689;SDS011;26977;44.830;-0.674;2022-10-17T06:12:29;37.75;;;17.75;;
35689;SDS011;26977;44.830;-0.674;2022-10-17T06:14:54;29.80;;;15.57;;
35689;SDS011;26977;44.830;-0.674;2022-10-17T06:17:20;33.35;;;14.68;;
35689;SDS011;26977;44.830;-0.674;2022-10-17T06:19:46;30.30;;;14.63;;
35689;SDS011;26977;44.830;-0.674;2022-10-17T06:22:11;27.35;;;14.48;;
35689;SDS011;26977;44.830;-0.674;2022-10-17T06:24:37;27.40;;;13.65;;
35689;SDS011;26977;44.830;-0.674;2022-10-17T06:27:03;33.83;;;14.85;;
35689;SDS011;26977;44.830;-0.674;2022-10-17T06:29:29;33.67;;;14.25;;
35689;SDS011;26977;44.830;-0.674;2022-10-17T06:31:54;33.00;;;13.80;;
35689;SDS011;26977;44.830;-0.674;2022-10-17T06:34:20;26.15;;;13.90;;
35689;SDS011;26977;44.830;-0.674;2022-10-17T06:36:46;29.88;;;14.13;;
35689;SDS011;26977;44.830;-0.674;2022-10-17T06:39:12;35.58;;;14.05;;
35689;SDS011;26977;44.830;-0.674;2022-10-17T06:41:38;28.10;;;13.52;;
35689;SDS011;26977;44.830;-0.674;2022-10-17T06:44:05;29.98;;;13.48;;
35689;SDS011;26977;44.830;-0.674;2022-10-17T06:46:35;35.00;;;14.30;;
35689;SDS011;26977;44.830;-0.674;2022-10-17T06:49:01;34.33;;;13.88;;
35689;SDS011;26977;44.830;-0.674;2022-10-17T06:51:28;31.35;;;13.20;;
35689;SDS011;26977;44.830;-0.674;2022-10-17T06:53:55;27.65;;;14.57;;
35689;SDS011;26977;44.830;-0.674;2022-10-17T06:56:22;33.03;;;14.13;;
35689;SDS011;26977;44.830;-0.674;2022-10-17T06:58:48;26.55;;;13.68;;
35689;SDS011;26977;44.830;-0.674;2022-10-17T07:01:15;31.17;;;13.80;;
35689;SDS011;26977;44.830;-0.674;2022-10-17T07:03:41;30.10;;;14.40;;
35689;SDS011;26977;44.830;-0.674;2022-10-17T07:06:07;29.95;;;13.60;;
35689;SDS011;26977;44.830;-0.674;2022-10-17T07:08:36;36.28;;;13.60;;
35689;SDS011;26977;44.830;-0.674;2022-10-17T07:11:09;22.27;;;12.70;;
35689;SDS011;26977;44.830;-0.674;2022-10-17T07:13:36;24.20;;;12.82;;
35689;SDS011;26977;44.830;-0.674;2022-10-17T07:16:02;26.48;;;13.63;;
35689;SDS011;26977;44.830;-0.674;2022-10-17T07:18:28;28.08;;;12.20;;
35689;SDS011;26977;44.830;-0.674;2022-10-17T07:20:54;25.80;;;12.65;;
35689;SDS011;26977;44.830;-0.674;2022-10-17T07:23:20;26.50;;;12.68;;
35689;SDS011;26977;44.830;-0.674;2022-10-17T07:25:46;22.23;;;11.85;;
35689;SDS011;26977;44.830;-0.674;2022-10-17T07:28:12;24.02;;;12.35;;
35689;SDS011;26977;44.830;-0.674;2022-10-17T07:30:39;25.00;;;10.48;;
35689;SDS011;26977;44.830;-0.674;2022-10-17T07:33:05;23.52;;;10.90;;
35689;SDS011;26977;44.830;-0.674;2022-10-17T07:35:31;23.75;;;11.13;;
35689;SDS011;26977;44.830;-0.674;2022-10-17T07:37:56;25.27;;;10.98;;
35689;SDS011;26977;44.830;-0.674;2022-10-17T07:40:22;22.77;;;11.70;;
35689;SDS011;26977;44.830;-0.674;2022-10-17T07:42:47;26.48;;;11.40;;
35689;SDS011;26977;44.830;-0.674;2022-10-17T07:45:13;30.48;;;12.57;;
35689;SDS011;26977;44.830;-0.674;2022-10-17T07:47:39;28.63;;;12.07;;
35689;SDS011;26977;44.830;-0.674;2022-10-17T07:50:05;23.50;;;11.65;;
35689;SDS011;26977;44.830;-0.674;2022-10-17T07:52:31;28.83;;;12.20;;
35689;SDS011;26977;44.830;-0.674;2022-10-17T07:54:57;33.20;;;13.23;;
35689;SDS011;26977;44.830;-0.674;2022-10-17T07:57:23;25.70;;;12.50;;
35689;SDS011;26977;44.830;-0.674;2022-10-17T07:59:49;31.02;;;12.32;;
35689;SDS011;26977;44.830;-0.674;2022-10-17T08:02:22;22.15;;;12.20;;
35689;SDS011;26977;44.830;-0.674;2022-10-17T08:04:49;27.45;;;12.18;;
35689;SDS011;26977;44.830;-0.674;2022-10-17T08:07:16;30.52;;;12.70;;
35689;SDS011;26977;44.830;-0.674;2022-10-17T08:09:42;24.17;;;12.63;;
35689;SDS011;26977;44.830;-0.674;2022-10-17T08:12:08;24.38;;;13.63;;
35689;SDS011;26977;44.830;-0.674;2022-10-17T08:14:34;27.25;;;12.18;;
35689;SDS011;26977;44.830;-0.674;2022-10-17T08:16:59;27.65;;;12.85;;
35689;SDS011;26977;44.830;-0.674;2022-10-17T08:19:25;25.75;;;12.50;;
35689;SDS011;26977;44.830;-0.674;2022-10-17T08:21:51;26.75;;;11.98;;
35689;SDS011;26977;44.830;-0.674;2022-10-17T08:24:18;24.02;;;12.25;;
35689;SDS011;26977;44.830;-0.674;2022-10-17T08:26:44;29.63;;;12.20;;
35689;SDS011;26977;44.830;-0.674;2022-10-17T08:29:13;20.90;;;11.98;;
35689;SDS011;26977;44.830;-0.674;2022-10-17T08:31:39;24.38;;;11.75;;
35689;SDS011;26977;44.830;-0.674;2022-10-17T08:34:05;26.13;;;12.35;;
35689;SDS011;26977;44.830;-0.674;2022-10-17T08:36:31;24.83;;;11.60;;
35689;SDS011;26977;44.830;-0.674;2022-10-17T08:38:56;21.08;;;11.23;;
35689;SDS011;26977;44.830;-0.674;2022-10-17T08:44:21;28.42;;;12.73;;
35689;SDS011;26977;44.830;-0.674;2022-10-17T08:46:58;30.90;;;12.65;;
35689;SDS011;26977;44.830;-0.674;2022-10-17T08:52:02;20.02;;;10.35;;
35689;SDS011;26977;44.830;-0.674;2022-10-17T08:54:42;20.92;;;10.77;;
35689;SDS011;26977;44.830;-0.674;2022-10-17T08:57:14;25.77;;;11.02;;
35689;SDS011;26977;44.830;-0.674;2022-10-17T08:59:41;27.23;;;11.02;;
35689;SDS011;26977;44.830;-0.674;2022-10-17T09:02:29;25.10;;;10.88;;
35689;SDS011;26977;44.830;-0.674;2022-10-17T09:08:28;28.20;;;10.63;;
35689;SDS011;26977;44.830;-0.674;2022-10-17T09:11:04;24.73;;;9.77;;
35689;SDS011;26977;44.830;-0.674;2022-10-17T09:21:00;26.00;;;10.30;;
35689;SDS011;26977;44.830;-0.674;2022-10-17T09:23:43;27.27;;;10.00;;
35689;SDS011;26977;44.830;-0.674;2022-10-17T09:26:15;24.63;;;9.57;;
35689;SDS011;26977;44.830;-0.674;2022-10-17T09:28:41;26.23;;;10.00;;
35689;SDS011;26977;44.830;-0.674;2022-10-17T09:31:15;27.65;;;10.50;;
35689;SDS011;26977;44.830;-0.674;2022-10-17T09:33:46;20.55;;;9.13;;
35689;SDS011;26977;44.830;-0.674;2022-10-17T09:36:25;17.85;;;8.77;;
35689;SDS011;26977;44.830;-0.674;2022-10-17T09:38:53;20.77;;;8.50;;
35689;SDS011;26977;44.830;-0.674;2022-10-17T09:41:22;23.98;;;7.95;;
35689;SDS011;26977;44.830;-0.674;2022-10-17T09:43:59;19.88;;;8.05;;
35689;SDS011;26977;44.830;-0.674;2022-10-17T09:46:39;22.55;;;7.80;;
35689;SDS011;26977;44.830;-0.674;2022-10-17T09:49:09;17.90;;;6.70;;
35689;SDS011;26977;44.830;-0.674;2022-10-17T09:51:41;17.02;;;6.53;;
35689;SDS011;26977;44.830;-0.674;2022-10-17T09:54:13;16.25;;;6.40;;
35689;SDS011;26977;44.830;-0.674;2022-10-17T09:57:01;14.65;;;6.57;;
35689;SDS011;26977;44.830;-0.674;2022-10-17T09:59:33;17.30;;;7.03;;
35689;SDS011;26977;44.830;-0.674;2022-10-17T10:02:08;17.70;;;7.30;;
35689;SDS011;26977;44.830;-0.674;2022-10-17T10:07:21;17.45;;;7.88;;
35689;SDS011;26977;44.830;-0.674;2022-10-17T10:09:48;14.18;;;6.60;;
35689;SDS011;26977;44.830;-0.674;2022-10-17T10:12:16;16.83;;;5.80;;
35689;SDS011;26977;44.830;-0.674;2022-10-17T10:14:44;18.08;;;6.07;;
35689;SDS011;26977;44.830;-0.674;2022-10-17T10:17:27;18.92;;;6.20;;
35689;SDS011;26977;44.830;-0.674;2022-10-17T10:19:58;14.00;;;5.90;;
35689;SDS011;26977;44.830;-0.674;2022-10-17T10:22:24;12.48;;;5.20;;
35689;SDS011;26977;44.830;-0.674;2022-10-17T10:25:06;14.57;;;5.65;;
35689;SDS011;26977;44.830;-0.674;2022-10-17T10:27:38;12.82;;;5.22;;
35689;SDS011;26977;44.830;-0.674;2022-10-17T10:30:05;14.45;;;5.70;;
35689;SDS011;26977;44.830;-0.674;2022-10-17T10:32:40;12.25;;;5.60;;
35689;SDS011;26977;44.830;-0.674;2022-10-17T10:35:20;10.55;;;5.32;;
35689;SDS011;26977;44.830;-0.674;2022-10-17T10:38:12;13.65;;;5.65;;
35689;SDS011;26977;44.830;-0.674;2022-10-17T10:44:14;12.73;;;5.70;;
35689;SDS011;26977;44.830;-0.674;2022-10-17T10:46:57;16.58;;;5.80;;
35689;SDS011;26977;44.830;-0.674;2022-10-17T10:50:24;16.27;;;5.80;;
35689;SDS011;26977;44.830;-0.674;2022-10-17T10:53:10;14.20;;;5.80;;
35689;SDS011;26977;44.830;-0.674;2022-10-17T10:55:49;12.30;;;5.18;;
35689;SDS011;26977;44.830;-0.674;2022-10-17T11:00:55;14.07;;;4.82;;
35689;SDS011;26977;44.830;-0.674;2022-10-17T11:03:35;17.80;;;8.63;;
35689;SDS011;26977;44.830;-0.674;2022-10-17T11:06:13;16.60;;;8.65;;
35689;SDS011;26977;44.830;-0.674;2022-10-17T11:08:56;13.65;;;4.53;;
35689;SDS011;26977;44.830;-0.674;2022-10-17T11:11:39;12.20;;;4.63;;
35689;SDS011;26977;44.830;-0.674;2022-10-17T11:16:51;15.55;;;4.65;;
35689;SDS011;26977;44.830;-0.674;2022-10-17T11:19:36;12.73;;;4.35;;
35689;SDS011;26977;44.830;-0.674;2022-10-17T11:22:15;13.13;;;4.38;;
35689;SDS011;26977;44.830;-0.674;2022-10-17T11:25:35;12.45;;;4.30;;
35689;SDS011;26977;44.830;-0.674;2022-10-17T11:27:35;13.55;;;5.07;;
35689;SDS011;26977;44.830;-0.674;2022-10-17T11:30:01;16.75;;;4.65;;
35689;SDS011;26977;44.830;-0.674;2022-10-17T11:32:30;9.70;;;4.10;;
35689;SDS011;26977;44.830;-0.674;2022-10-17T11:35:04;10.82;;;4.80;;
35689;SDS011;26977;44.830;-0.674;2022-10-17T11:37:40;18.40;;;4.55;;
35689;SDS011;26977;44.830;-0.674;2022-10-17T11:40:15;10.73;;;4.18;;
35689;SDS011;26977;44.830;-0.674;2022-10-17T11:43:33;15.85;;;4.68;;
35689;SDS011;26977;44.830;-0.674;2022-10-17T11:45:43;12.93;;;3.90;;
35689;SDS011;26977;44.830;-0.674;2022-10-17T11:48:13;11.77;;;3.80;;
35689;SDS011;26977;44.830;-0.674;2022-10-17T11:51:10;15.68;;;4.15;;
35689;SDS011;26977;44.830;-0.674;2022-10-17T11:53:48;9.20;;;3.90;;
35689;SDS011;26977;44.830;-0.674;2022-10-17T11:56:25;13.63;;;4.32;;
35689;SDS011;26977;44.830;-0.674;2022-10-17T12:02:05;15.23;;;3.65;;
35689;SDS011;26977;44.830;-0.674;2022-10-17T12:07:17;9.27;;;3.65;;
35689;SDS011;26977;44.830;-0.674;2022-10-17T12:12:26;11.77;;;3.75;;
35689;SDS011;26977;44.830;-0.674;2022-10-17T12:14:54;11.82;;;3.50;;
35689;SDS011;26977;44.830;-0.674;2022-10-17T12:17:55;10.20;;;3.72;;
35689;SDS011;26977;44.830;-0.674;2022-10-17T12:20:30;11.13;;;3.45;;
35689;SDS011;26977;44.830;-0.674;2022-10-17T12:25:46;8.85;;;3.10;;
35689;SDS011;26977;44.830;-0.674;2022-10-17T12:28:55;9.60;;;3.60;;
35689;SDS011;26977;44.830;-0.674;2022-10-17T12:31:03;10.93;;;3.53;;
35689;SDS011;26977;44.830;-0.674;2022-10-17T12:42:20;9.82;;;3.30;;
35689;SDS011;26977;44.830;-0.674;2022-10-17T12:57:38;10.65;;;3.47;;
35689;SDS011;26977;44.830;-0.674;2022-10-17T13:05:51;12.55;;;3.20;;
35689;SDS011;26977;44.830;-0.674;2022-10-17T13:08:23;8.65;;;3.10;;
35689;SDS011;26977;44.830;-0.674;2022-10-17T13:10:53;18.83;;;10.27;;
35689;SDS011;26977;44.830;-0.674;2022-10-17T13:15:59;14.02;;;3.70;;
35689;SDS011;26977;44.830;-0.674;2022-10-17T13:18:26;11.57;;;3.20;;
35689;SDS011;26977;44.830;-0.674;2022-10-17T13:23:40;7.88;;;2.70;;
35689;SDS011;26977;44.830;-0.674;2022-10-17T13:28:37;10.02;;;2.78;;
35689;SDS011;26977;44.830;-0.674;2022-10-17T13:31:03;6.88;;;3.00;;
35689;SDS011;26977;44.830;-0.674;2022-10-17T13:33:38;7.47;;;2.90;;
35689;SDS011;26977;44.830;-0.674;2022-10-17T13:36:06;17.25;;;2.90;;
35689;SDS011;26977;44.830;-0.674;2022-10-17T13:38:37;11.27;;;2.83;;
35689;SDS011;26977;44.830;-0.674;2022-10-17T13:41:03;12.05;;;3.10;;
35689;SDS011;26977;44.830;-0.674;2022-10-17T13:43:37;9.02;;;2.80;;
35689;SDS011;26977;44.830;-0.674;2022-10-17T13:46:03;12.32;;;3.08;;
35689;SDS011;26977;44.830;-0.674;2022-10-17T13:48:31;10.80;;;2.47;;
35689;SDS011;26977;44.830;-0.674;2022-10-17T13:51:01;11.07;;;3.03;;
35689;SDS011;26977;44.830;-0.674;2022-10-17T13:53:36;8.68;;;2.95;;
35689;SDS011;26977;44.830;-0.674;2022-10-17T13:56:26;11.65;;;2.83;;
35689;SDS011;26977;44.830;-0.674;2022-10-17T13:58:52;14.27;;;3.40;;
35689;SDS011;26977;44.830;-0.674;2022-10-17T14:01:21;12.18;;;2.92;;
35689;SDS011;26977;44.830;-0.674;2022-10-17T14:03:52;12.43;;;3.00;;
35689;SDS011;26977;44.830;-0.674;2022-10-17T14:06:22;9.43;;;2.72;;
35689;SDS011;26977;44.830;-0.674;2022-10-17T14:13:59;12.93;;;3.10;;
35689;SDS011;26977;44.830;-0.674;2022-10-17T14:16:32;10.65;;;2.85;;
35689;SDS011;26977;44.830;-0.674;2022-10-17T14:19:03;8.00;;;3.10;;
35689;SDS011;26977;44.830;-0.674;2022-10-17T14:21:29;10.80;;;3.10;;
35689;SDS011;26977;44.830;-0.674;2022-10-17T14:24:12;11.45;;;3.05;;
35689;SDS011;26977;44.830;-0.674;2022-10-17T14:26:51;16.55;;;3.22;;
35689;SDS011;26977;44.830;-0.674;2022-10-17T14:29:23;11.73;;;3.30;;
35689;SDS011;26977;44.830;-0.674;2022-10-17T14:32:06;12.00;;;3.10;;
35689;SDS011;26977;44.830;-0.674;2022-10-17T14:34:36;10.05;;;3.17;;
35689;SDS011;26977;44.830;-0.674;2022-10-17T14:37:08;11.15;;;3.42;;
35689;SDS011;26977;44.830;-0.674;2022-10-17T14:39:49;14.50;;;3.40;;
35689;SDS011;26977;44.830;-0.674;2022-10-17T14:42:18;12.50;;;3.22;;
35689;SDS011;26977;44.830;-0.674;2022-10-17T14:44:47;8.52;;;3.35;;
35689;SDS011;26977;44.830;-0.674;2022-10-17T14:47:20;8.90;;;3.45;;
35689;SDS011;26977;44.830;-0.674;2022-10-17T14:49:50;12.07;;;3.30;;
35689;SDS011;26977;44.830;-0.674;2022-10-17T14:52:27;11.32;;;3.72;;
35689;SDS011;26977;44.830;-0.674;2022-10-17T14:54:54;10.75;;;3.40;;
35689;SDS011;26977;44.830;-0.674;2022-10-17T14:59:58;7.72;;;3.03;;
35689;SDS011;26977;44.830;-0.674;2022-10-17T15:02:25;10.40;;;2.85;;
35689;SDS011;26977;44.830;-0.674;2022-10-17T15:04:52;12.18;;;3.05;;
35689;SDS011;26977;44.830;-0.674;2022-10-17T15:07:18;10.20;;;2.90;;
35689;SDS011;26977;44.830;-0.674;2022-10-17T15:09:46;9.68;;;2.80;;
35689;SDS011;26977;44.830;-0.674;2022-10-17T15:12:14;10.63;;;2.78;;
35689;SDS011;26977;44.830;-0.674;2022-10-17T15:14:48;7.65;;;2.97;;
35689;SDS011;26977;44.830;-0.674;2022-10-17T15:17:26;9.68;;;3.13;;
35689;SDS011;26977;44.830;-0.674;2022-10-17T15:19:54;12.88;;;3.80;;
35689;SDS011;26977;44.830;-0.674;2022-10-17T15:22:20;13.82;;;2.97;;
35689;SDS011;26977;44.830;-0.674;2022-10-17T15:24:47;10.48;;;2.92;;
35689;SDS011;26977;44.830;-0.674;2022-10-17T15:29:44;8.55;;;2.70;;
35689;SDS011;26977;44.830;-0.674;2022-10-17T15:32:10;7.78;;;2.60;;
35689;SDS011;26977;44.830;-0.674;2022-10-17T15:34:36;10.00;;;2.70;;
35689;SDS011;26977;44.830;-0.674;2022-10-17T15:37:02;8.90;;;3.30;;
35689;SDS011;26977;44.830;-0.674;2022-10-17T15:39:50;9.25;;;2.95;;
35689;SDS011;26977;44.830;-0.674;2022-10-17T15:42:18;10.70;;;3.10;;
35689;SDS011;26977;44.830;-0.674;2022-10-17T15:44:51;7.93;;;3.05;;
35689;SDS011;26977;44.830;-0.674;2022-10-17T15:47:38;12.57;;;3.28;;
35689;SDS011;26977;44.830;-0.674;2022-10-17T15:50:03;8.10;;;2.70;;
35689;SDS011;26977;44.830;-0.674;2022-10-17T15:52:33;11.30;;;2.90;;
35689;SDS011;26977;44.830;-0.674;2022-10-17T15:54:58;9.68;;;2.85;;
35689;SDS011;26977;44.830;-0.674;2022-10-17T15:57:25;10.95;;;2.55;;
35689;SDS011;26977;44.830;-0.674;2022-10-17T15:59:53;12.30;;;3.20;;
35689;SDS011;26977;44.830;-0.674;2022-10-17T16:02:21;6.88;;;2.67;;
35689;SDS011;26977;44.830;-0.674;2022-10-17T16:04:48;10.40;;;2.97;;
35689;SDS011;26977;44.830;-0.674;2022-10-17T16:07:14;8.18;;;2.70;;
35689;SDS011;26977;44.830;-0.674;2022-10-17T16:09:40;10.35;;;2.80;;
35689;SDS011;26977;44.830;-0.674;2022-10-17T16:12:10;9.05;;;3.03;;
35689;SDS011;26977;44.830;-0.674;2022-10-17T16:14:39;11.90;;;3.00;;
35689;SDS011;26977;44.830;-0.674;2022-10-17T16:17:05;10.23;;;3.05;;
35689;SDS011;26977;44.830;-0.674;2022-10-17T16:19:30;7.53;;;2.72;;
35689;SDS011;26977;44.830;-0.674;2022-10-17T16:21:56;10.35;;;2.90;;
35689;SDS011;26977;44.830;-0.674;2022-10-17T16:24:25;11.75;;;3.20;;
35689;SDS011;26977;44.830;-0.674;2022-10-17T16:26:50;10.68;;;3.40;;
35689;SDS011;26977;44.830;-0.674;2022-10-17T16:29:16;11.07;;;3.35;;
35689;SDS011;26977;44.830;-0.674;2022-10-17T16:31:42;8.35;;;2.92;;
35689;SDS011;26977;44.830;-0.674;2022-10-17T16:34:09;11.82;;;3.47;;
35689;SDS011;26977;44.830;-0.674;2022-10-17T16:36:37;8.55;;;2.90;;